首页
METAR-TAF:

METAR-TAF

机场 :

Mount Vernon Airport

Mount Vernon, 伊利诺伊州, 美国

纬度: 38-19N, 经度: 088-52W, 海拔: 146米

当前天气观测

该预报发布于1小时和4分钟前的06:56 UTC
风速4节,风向东北
温度 7°C
湿度 93%
气压 1019 hPa
能見度: 11.3公里
阴天层高于1500英尺

METAR: KMVN 050656Z AUTO 04004KT 7SM OVC015 07/06 A3009 RMK AO2 SLP197 T00670061

时间: 03:00 (08:00 UTC)

预报

该预报发布于2小时和40分钟前的05:20 UTC
预报有效从05日的 06点(UTC)到 06日的 06点(UTC)
风速2节,风向多变
能見度: 9.7公里
阴天层高于1500英尺
轻雾
从 05日的 1000点(UTC)
风速2节,风向多变
能見度: 6.4公里
阴天层高于1200英尺
轻雾
从 05日的 1400点(UTC)
风速4节,风向北转西北
能見度: 10公里
阴天层高于1500英尺
从 05日的 2100点(UTC)
风速3节,风向北转西北
能見度: 10公里
多云层高于3500英尺

TAF: KMVN 050520Z 0506/0606 VRB02KT 6SM BR OVC015 FM051000 VRB02KT 4SM BR OVC012 FM051400 34004KT P6SM OVC015 FM052100 33003KT P6SM BKN035

超过4000个机场的气象观测和天气预报(METAR&TAF报告)。

可查询的气象台以黄色和红色小点在地图上表示。

将鼠标移到小点上方,可查看气象台名称。

然后点击查看天气观测和预报。

如需切换地图:点击带黑十字的绿色按钮放大地图;点击带横线的绿色按钮缩小地图;或者点击绿色箭头查看邻近地区的地图。


METAR-TAF: